Time;durP1;ratioP1;P1;durP2;ratioP2;P2;SDS_P1;SDS_P2;PMS_P1;PMS_P2;Temp;Humidity;BMP_temperature;BMP_pressure;BME280_temperature;BME280_humidity;BME280_pressure;Samples;Min_cycle;Max_cycle;Signal;HPM_P1;HPM_P2
2021/09/04 00:01:31;;;;;;;14.90;11.00;;;;;;;13.51;81.41;98536.94;111709;1213;24535;-75
2021/09/04 00:03:58;;;;;;;17.30;11.50;;;;;;;13.50;81.56;98533.36;111711;1212;25139;-75
2021/09/04 00:06:39;;;;;;;15.50;11.20;;;;;;;13.50;81.68;98534.08;111756;1212;22670;-74
2021/09/04 00:09:20;;;;;;;20.00;11.90;;;;;;;13.46;81.67;98534.23;111740;1215;25171;-74
2021/09/04 00:12:03;;;;;;;15.50;11.50;;;;;;;13.44;81.74;98528.63;111601;1214;23784;-75
2021/09/04 00:14:31;;;;;;;16.70;10.60;;;;;;;13.42;81.64;98530.25;111715;1214;23217;-75
2021/09/04 00:16:59;;;;;;;15.80;11.00;;;;;;;13.41;81.61;98530.40;111776;1215;23443;-75
2021/09/04 00:19:26;;;;;;;17.50;11.60;;;;;;;13.40;81.74;98530.73;111696;1212;22449;-74
2021/09/04 00:21:53;;;;;;;16.00;10.60;;;;;;;13.38;81.74;98531.64;111721;1218;24070;-74
2021/09/04 00:24:20;;;;;;;18.50;11.20;;;;;;;13.38;81.69;98528.95;111685;1212;22549;-74
2021/09/04 00:27:02;;;;;;;20.10;11.20;;;;;;;13.39;81.68;98528.09;111724;1216;25085;-75
2021/09/04 00:29:29;;;;;;;15.00;10.10;;;;;;;13.39;81.75;98525.91;111685;1212;23109;-74
2021/09/04 00:32:10;;;;;;;17.30;11.90;;;;;;;13.39;81.85;98523.55;111719;1212;24215;-75
2021/09/04 00:34:37;;;;;;;17.80;11.70;;;;;;;13.39;81.91;98527.55;111656;1212;25072;-74
2021/09/04 00:37:04;;;;;;;17.10;11.80;;;;;;;13.36;81.74;98523.48;111661;1212;22457;-74
2021/09/04 00:39:33;;;;;;;14.60;10.80;;;;;;;13.35;81.79;98526.80;111962;1212;25202;-74
2021/09/04 00:42:01;;;;;;;17.40;10.90;;;;;;;13.33;81.72;98523.17;111821;1208;24122;-74
2021/09/04 00:44:28;;;;;;;16.20;11.00;;;;;;;13.31;81.79;98525.34;111768;1212;22454;-74
2021/09/04 00:47:07;;;;;;;16.30;11.40;;;;;;;13.30;81.56;98525.54;111560;1213;22753;-74
2021/09/04 00:49:36;;;;;;;16.90;11.40;;;;;;;13.26;81.73;98525.70;111869;1212;22458;-74
2021/09/04 00:52:20;;;;;;;18.20;11.50;;;;;;;13.20;81.66;98526.43;111659;1219;24682;-74
2021/09/04 00:54:47;;;;;;;16.50;10.00;;;;;;;13.18;81.89;98522.04;111656;1220;23783;-74
2021/09/04 00:57:15;;;;;;;17.70;11.10;;;;;;;13.14;82.02;98528.13;111715;1212;23926;-74
2021/09/04 00:59:45;;;;;;;14.90;10.80;;;;;;;13.11;82.15;98522.64;111588;1214;23411;-74
2021/09/04 01:02:12;;;;;;;18.60;11.60;;;;;;;13.11;82.08;98523.61;111652;1212;22569;-74
2021/09/04 01:04:40;;;;;;;14.80;11.00;;;;;;;13.09;82.04;98520.87;111822;1212;23241;-74
2021/09/04 01:07:07;;;;;;;16.40;11.20;;;;;;;13.07;81.95;98523.48;111840;1212;22572;-74
2021/09/04 01:09:34;;;;;;;16.80;10.90;;;;;;;13.05;81.91;98518.86;111813;1212;24135;-74
2021/09/04 01:12:02;;;;;;;15.10;10.80;;;;;;;13.06;82.14;98521.60;111730;1214;23286;-74
2021/09/04 01:14:29;;;;;;;17.80;10.60;;;;;;;13.04;82.18;98522.40;111595;1215;22487;-74
2021/09/04 01:16:56;;;;;;;18.70;11.80;;;;;;;13.04;82.39;98525.64;111622;1213;22702;-74
2021/09/04 01:19:37;;;;;;;16.60;10.00;;;;;;;13.01;82.20;98524.84;111751;1215;25128;-74
2021/09/04 01:22:18;;;;;;;14.50;11.10;;;;;;;12.99;82.30;98526.20;111638;1213;23229;-74
2021/09/04 01:24:49;;;;;;;18.00;10.70;;;;;;;12.97;82.39;98521.24;111793;1213;25033;-74
2021/09/04 01:27:18;;;;;;;14.80;9.90;;;;;;;12.96;82.36;98521.08;111763;1205;25082;-74
2021/09/04 01:29:46;;;;;;;19.50;11.40;;;;;;;12.94;82.10;98523.40;111775;1213;22472;-74
2021/09/04 01:32:13;;;;;;;14.80;11.70;;;;;;;12.90;82.11;98523.25;111727;1212;22459;-74
2021/09/04 01:34:53;;;;;;;17.80;12.20;;;;;;;12.85;81.92;98523.77;111864;1212;22470;-74
2021/09/04 01:37:23;;;;;;;18.10;11.70;;;;;;;12.80;82.09;98521.79;111763;1212;24091;-74
2021/09/04 01:39:50;;;;;;;18.40;11.60;;;;;;;12.74;82.22;98524.86;111840;1212;25160;-74
2021/09/04 01:42:17;;;;;;;20.00;12.30;;;;;;;12.71;82.34;98522.80;112001;1212;22469;-74
2021/09/04 01:44:47;;;;;;;;;;;;;;;12.69;82.69;98524.84;111775;1212;22460;-74
2021/09/04 01:47:13;;;;;;;20.20;12.60;;;;;;;12.66;83.00;98527.01;111813;1212;24072;-74
2021/09/04 01:49:40;;;;;;;18.40;12.90;;;;;;;12.62;83.08;98529.31;111705;1212;24204;-74
2021/09/04 01:52:08;;;;;;;16.20;11.70;;;;;;;12.59;83.27;98527.59;111773;1212;22472;-74
2021/09/04 01:54:51;;;;;;;20.50;12.10;;;;;;;12.57;83.44;98525.10;111815;1220;22464;-74
2021/09/04 01:57:19;;;;;;;21.70;12.90;;;;;;;12.50;83.57;98530.50;111625;1215;22732;-74
2021/09/04 01:59:46;;;;;;;19.40;12.60;;;;;;;12.41;83.62;98527.77;111858;1213;22481;-74
2021/09/04 02:02:16;;;;;;;18.70;13.70;;;;;;;12.39;83.97;98525.01;111749;1212;22451;-74
2021/09/04 02:04:57;;;;;;;20.40;12.80;;;;;;;12.35;84.27;98523.66;111762;1212;23659;-74
2021/09/04 02:07:24;;;;;;;20.50;11.90;;;;;;;12.36;84.31;98518.27;111785;1212;25443;-74
2021/09/04 02:09:51;;;;;;;19.70;12.50;;;;;;;12.37;84.01;98518.11;111835;1220;23789;-74
2021/09/04 02:12:32;;;;;;;19.00;13.20;;;;;;;12.39;84.37;98518.95;111867;1220;22674;-74
2021/09/04 02:14:59;;;;;;;21.00;13.30;;;;;;;12.42;84.55;98519.70;111663;1213;23806;-74
2021/09/04 02:17:41;;;;;;;21.70;12.80;;;;;;;12.44;84.36;98516.23;111665;1220;22584;-74
2021/09/04 02:20:24;;;;;;;17.90;11.90;;;;;;;12.46;84.32;98513.99;111653;1213;25087;-74
2021/09/04 02:22:52;;;;;;;22.20;13.50;;;;;;;12.48;84.33;98514.25;111769;1214;24139;-74
2021/09/04 02:25:19;;;;;;;20.40;14.00;;;;;;;12.50;84.64;98512.85;111561;1214;24334;-74
2021/09/04 02:28:04;;;;;;;21.50;12.60;;;;;;;12.50;84.50;98515.04;111762;1214;25081;-74
2021/09/04 02:30:45;;;;;;;17.80;12.30;;;;;;;12.47;84.74;98516.36;111610;1213;25128;-74
2021/09/04 02:33:12;;;;;;;19.20;12.20;;;;;;;12.44;84.42;98515.84;111603;1212;23249;-74
2021/09/04 02:35:39;;;;;;;18.80;12.40;;;;;;;12.44;84.05;98516.16;111554;1215;24167;-74
2021/09/04 02:38:07;;;;;;;20.50;12.90;;;;;;;12.43;83.96;98521.56;111654;1214;22492;-74
2021/09/04 02:40:35;;;;;;;23.70;13.90;;;;;;;12.40;84.22;98517.65;111712;1212;25236;-74
2021/09/04 02:43:03;;;;;;;23.10;14.10;;;;;;;12.40;84.51;98518.30;111570;1215;22460;-74
2021/09/04 02:45:44;;;;;;;19.50;12.30;;;;;;;12.38;84.57;98517.02;111683;1213;25253;-75
2021/09/04 02:48:12;;;;;;;18.10;12.50;;;;;;;12.38;84.54;98518.44;111749;1212;22832;-74
2021/09/04 02:50:39;;;;;;;20.80;14.00;;;;;;;12.38;84.57;98514.73;111612;1214;22722;-75
2021/09/04 02:53:08;;;;;;;20.50;13.70;;;;;;;12.38;84.65;98517.95;111631;1205;25043;-75
2021/09/04 02:55:35;;;;;;;20.80;13.10;;;;;;;12.40;84.68;98517.20;111735;1220;22933;-75
2021/09/04 02:58:03;;;;;;;19.30;12.80;;;;;;;12.41;84.94;98516.67;111705;1213;24097;-75
2021/09/04 03:00:30;;;;;;;20.90;12.90;;;;;;;12.40;84.50;98514.87;111952;1212;25074;-75
2021/09/04 03:03:13;;;;;;;19.50;12.70;;;;;;;12.41;84.36;98515.36;112067;1212;25086;-75
2021/09/04 03:05:56;;;;;;;21.10;14.10;;;;;;;12.41;84.27;98517.62;111825;1212;23555;-74
2021/09/04 03:08:25;;;;;;;18.20;13.20;;;;;;;12.42;84.18;98521.55;111767;1212;22467;-75
2021/09/04 03:10:53;;;;;;;18.20;12.40;;;;;;;12.40;84.11;98519.84;111840;1212;25049;-75
2021/09/04 03:13:20;;;;;;;19.30;12.30;;;;;;;12.38;83.92;98518.55;111711;1206;25700;-75
2021/09/04 03:16:02;;;;;;;22.30;14.70;;;;;;;12.33;83.78;98515.39;111715;1220;25239;-75
2021/09/04 03:18:30;;;;;;;20.80;13.50;;;;;;;12.30;83.62;98515.89;111610;1215;24097;-75
2021/09/04 03:20:58;;;;;;;20.00;13.20;;;;;;;12.27;83.74;98515.48;111775;1213;22468;-75
2021/09/04 03:23:25;;;;;;;19.00;12.90;;;;;;;12.23;83.83;98510.67;111655;1212;23230;-74
2021/09/04 03:26:06;;;;;;;18.20;12.40;;;;;;;12.19;83.92;98509.98;111711;1212;25120;-75
2021/09/04 03:28:34;;;;;;;24.30;14.50;;;;;;;12.17;83.90;98507.98;112056;1212;24090;-74
2021/09/04 03:31:01;;;;;;;22.80;14.10;;;;;;;12.15;83.98;98509.86;111776;1212;22466;-74
2021/09/04 03:33:42;;;;;;;20.40;14.60;;;;;;;12.09;84.30;98505.91;111814;1212;22497;-74
2021/09/04 03:36:09;;;;;;;21.40;12.80;;;;;;;12.08;84.40;98505.69;111745;1206;25072;-75
2021/09/04 03:38:51;;;;;;;19.20;12.40;;;;;;;12.08;84.31;98497.48;111965;1212;23500;-75
2021/09/04 03:41:18;;;;;;;21.70;13.40;;;;;;;12.08;84.41;98500.77;111938;1212;23759;-74
2021/09/04 03:43:47;;;;;;;21.20;14.70;;;;;;;12.07;84.08;98498.79;111821;1212;25121;-74
2021/09/04 03:46:28;;;;;;;21.40;13.80;;;;;;;12.07;84.43;98504.21;111968;1212;25191;-74
2021/09/04 03:48:59;;;;;;;20.40;13.90;;;;;;;12.08;84.59;98507.44;111846;1214;24082;-74
2021/09/04 03:51:27;;;;;;;24.40;14.40;;;;;;;12.08;84.58;98510.55;111761;1212;22470;-74
2021/09/04 03:53:55;;;;;;;21.90;15.00;;;;;;;12.08;84.78;98517.27;112014;1212;24105;-74
2021/09/04 03:56:24;;;;;;;23.10;15.60;;;;;;;12.09;84.96;98519.80;111849;1212;22448;-74
2021/09/04 03:58:52;;;;;;;23.60;15.60;;;;;;;12.11;85.00;98523.69;111733;1212;22486;-74
2021/09/04 04:01:34;;;;;;;23.80;15.20;;;;;;;12.11;85.36;98520.58;111808;1212;25196;-74
2021/09/04 04:04:02;;;;;;;19.70;14.10;;;;;;;12.12;85.03;98523.27;112029;1212;25157;-74
2021/09/04 04:06:29;;;;;;;23.90;14.10;;;;;;;12.12;84.62;98527.91;111836;1212;22467;-74
2021/09/04 04:08:57;;;;;;;21.50;14.40;;;;;;;12.13;84.45;98531.15;111977;1212;22453;-74
2021/09/04 04:11:40;;;;;;;23.00;15.10;;;;;;;12.10;84.33;98531.70;111739;1212;25217;-74
2021/09/04 04:14:07;;;;;;;23.60;15.50;;;;;;;12.04;84.19;98536.54;111679;1206;24155;-74
2021/09/04 04:16:34;;;;;;;22.10;15.00;;;;;;;11.99;84.73;98535.54;111828;1212;22509;-74
2021/09/04 04:19:16;;;;;;;19.10;13.00;;;;;;;11.93;84.94;98532.38;111786;1212;26388;-74
2021/09/04 04:21:44;;;;;;;24.80;14.60;;;;;;;11.91;85.36;98529.80;111915;1205;22459;-74
2021/09/04 04:24:12;;;;;;;24.00;15.90;;;;;;;11.90;85.35;98529.30;112029;1212;22456;-74
2021/09/04 04:26:40;;;;;;;21.40;15.20;;;;;;;11.88;85.74;98534.65;111907;1212;24102;-74
2021/09/04 04:29:07;;;;;;;22.20;15.10;;;;;;;11.87;85.90;98537.59;111872;1220;24143;-74
2021/09/04 04:31:35;;;;;;;20.00;14.30;;;;;;;11.88;86.25;98537.60;111993;1212;22488;-74
2021/09/04 04:34:03;;;;;;;25.10;15.80;;;;;;;11.91;86.20;98538.02;111876;1213;22467;-74
2021/09/04 04:36:31;;;;;;;23.70;16.60;;;;;;;11.96;86.66;98539.60;111769;1205;23940;-74
2021/09/04 04:38:58;;;;;;;23.00;13.90;;;;;;;12.01;86.13;98536.00;111730;1214;22469;-74
2021/09/04 04:41:26;;;;;;;20.70;13.90;;;;;;;12.06;86.24;98540.65;111897;1213;22448;-74
2021/09/04 04:43:53;;;;;;;19.50;13.90;;;;;;;12.11;86.24;98541.05;111650;1213;24105;-74
2021/09/04 04:46:20;;;;;;;23.20;15.10;;;;;;;12.12;85.77;98541.23;111688;1205;25085;-74
2021/09/04 04:48:47;;;;;;;23.90;15.00;;;;;;;12.12;85.76;98540.29;111723;1205;22470;-74
2021/09/04 04:51:15;;;;;;;23.80;15.50;;;;;;;12.15;86.01;98543.02;111727;1212;25054;-74
2021/09/04 04:53:42;;;;;;;20.20;13.50;;;;;;;12.18;85.71;98545.34;111795;1213;22481;-74
2021/09/04 04:56:10;;;;;;;23.50;14.70;;;;;;;12.20;85.67;98550.62;111840;1212;25043;-74
2021/09/04 04:58:38;;;;;;;23.30;14.70;;;;;;;12.26;85.83;98549.43;111914;1212;22490;-76
2021/09/04 05:01:05;;;;;;;24.30;16.10;;;;;;;12.28;85.48;98544.88;111788;1206;22559;-74
2021/09/04 05:03:32;;;;;;;27.00;16.90;;;;;;;12.31;85.34;98544.97;111883;1212;26470;-74
2021/09/04 05:06:14;;;;;;;21.30;14.80;;;;;;;12.35;85.70;98541.63;112001;1215;22485;-74
2021/09/04 05:08:41;;;;;;;25.00;16.10;;;;;;;12.38;85.44;98543.18;111755;1220;22491;-74
2021/09/04 05:11:23;;;;;;;22.60;14.90;;;;;;;12.41;85.78;98538.04;111884;1212;22645;-74
2021/09/04 05:14:06;;;;;;;24.40;16.00;;;;;;;12.47;85.77;98542.70;111611;1218;25190;-74
2021/09/04 05:16:33;;;;;;;23.50;16.90;;;;;;;12.52;85.66;98541.05;111619;1212;22457;-74
2021/09/04 05:19:15;;;;;;;24.00;16.00;;;;;;;12.57;85.40;98540.08;111673;1220;24544;-74
2021/09/04 05:21:42;;;;;;;26.10;14.90;;;;;;;12.62;85.43;98548.23;111597;1205;25129;-74
2021/09/04 05:24:09;;;;;;;20.90;14.60;;;;;;;12.64;85.25;98550.91;111810;1205;22454;-74
2021/09/04 05:26:36;;;;;;;23.60;16.20;;;;;;;12.63;85.11;98554.23;111686;1212;23424;-74
2021/09/04 05:29:03;;;;;;;23.40;16.80;;;;;;;12.63;85.05;98556.09;111934;1212;25125;-74
2021/09/04 05:31:30;;;;;;;25.80;16.80;;;;;;;12.58;84.92;98554.29;111934;1205;25293;-75
2021/09/04 05:33:58;;;;;;;25.90;18.10;;;;;;;12.53;85.34;98556.64;111620;1212;22449;-75
2021/09/04 05:36:25;;;;;;;25.30;15.80;;;;;;;12.52;85.56;98561.83;111631;1212;22473;-75
2021/09/04 05:38:52;;;;;;;30.70;17.40;;;;;;;12.55;85.67;98566.45;111867;1212;22468;-75
2021/09/04 05:41:19;;;;;;;25.10;17.00;;;;;;;12.57;86.00;98569.80;111684;1212;22978;-75
2021/09/04 05:43:46;;;;;;;29.20;17.90;;;;;;;12.61;86.00;98564.99;111631;1213;23472;-74
2021/09/04 05:46:13;;;;;;;25.50;18.00;;;;;;;12.61;85.96;98561.16;111663;1212;22460;-75
2021/09/04 05:48:40;;;;;;;28.00;16.00;;;;;;;12.67;86.18;98559.42;112031;1212;23085;-75
2021/09/04 05:51:08;;;;;;;26.20;15.00;;;;;;;12.74;85.94;98564.86;111726;1212;25043;-75
2021/09/04 05:53:49;;;;;;;30.30;17.90;;;;;;;12.78;85.87;98562.59;111651;1213;24076;-75
2021/09/04 05:56:29;;;;;;;30.00;18.90;;;;;;;12.81;86.01;98561.48;111743;1213;22460;-75
2021/09/04 05:58:56;;;;;;;25.80;17.90;;;;;;;12.85;86.00;98562.19;111776;1213;25149;-75
2021/09/04 06:01:23;;;;;;;26.80;16.30;;;;;;;12.90;85.88;98567.92;111711;1212;22524;-77
2021/09/04 06:03:50;;;;;;;27.10;17.00;;;;;;;12.97;85.84;98569.75;111887;1212;22566;-75
2021/09/04 06:06:17;;;;;;;24.80;16.60;;;;;;;13.06;85.74;98578.85;111894;1205;24105;-76
2021/09/04 06:08:43;;;;;;;23.30;16.80;;;;;;;13.16;85.63;98579.93;111888;1212;25547;-75
2021/09/04 06:11:24;;;;;;;28.70;19.40;;;;;;;13.23;85.85;98581.04;111922;1218;22513;-76
2021/09/04 06:13:51;;;;;;;25.80;18.40;;;;;;;13.31;86.35;98575.50;111575;1214;22576;-75
2021/09/04 06:16:18;;;;;;;28.00;18.00;;;;;;;13.43;86.25;98574.74;111709;1212;22576;-75
2021/09/04 06:18:45;;;;;;;28.50;18.30;;;;;;;13.56;86.03;98572.77;111654;1212;23516;-75
2021/09/04 06:21:12;;;;;;;25.20;18.00;;;;;;;13.68;86.02;98575.10;111632;1212;25125;-75
2021/09/04 06:23:52;;;;;;;29.00;20.00;;;;;;;13.80;85.65;98574.59;111675;1212;22463;-75
2021/09/04 06:26:19;;;;;;;29.50;20.30;;;;;;;13.88;85.56;98575.35;111640;1213;22466;-75
2021/09/04 06:28:46;;;;;;;29.00;18.50;;;;;;;13.96;85.23;98573.54;111774;1212;22470;-75
2021/09/04 06:31:13;;;;;;;25.60;18.40;;;;;;;13.99;84.83;98575.26;111460;1212;25100;-75
2021/09/04 06:33:40;;;;;;;27.80;19.60;;;;;;;14.07;84.88;98571.63;111490;1212;22786;-75
2021/09/04 06:36:21;;;;;;;29.70;20.10;;;;;;;14.19;84.93;98571.70;111484;1212;22581;-75
2021/09/04 06:38:47;;;;;;;28.20;20.30;;;;;;;14.32;85.09;98577.56;111756;1214;23533;-75
2021/09/04 06:41:14;;;;;;;30.60;20.40;;;;;;;14.42;84.61;98575.80;111659;1215;22470;-75
2021/09/04 06:43:41;;;;;;;29.90;19.70;;;;;;;14.52;84.65;98573.98;111697;1212;24174;-75
2021/09/04 06:46:22;;;;;;;30.70;19.20;;;;;;;14.63;84.21;98576.80;111725;1215;22572;-75
2021/09/04 06:48:49;;;;;;;31.20;21.20;;;;;;;14.68;83.98;98578.84;111902;1212;22503;-75
2021/09/04 06:51:16;;;;;;;33.60;21.50;;;;;;;14.74;83.98;98587.25;111798;1213;26316;-75
2021/09/04 06:53:43;;;;;;;37.00;23.50;;;;;;;14.84;83.82;98586.91;111745;1215;22710;-75
2021/09/04 06:56:10;;;;;;;32.90;22.10;;;;;;;14.93;83.46;98590.33;111874;1206;24102;-75
2021/09/04 06:58:37;;;;;;;32.40;23.20;;;;;;;15.01;83.21;98590.17;111797;1212;22460;-75
2021/09/04 07:01:03;;;;;;;38.40;24.20;;;;;;;15.09;83.23;98593.54;112117;1212;22586;-75
2021/09/04 07:03:31;;;;;;;40.80;23.90;;;;;;;15.20;83.06;98599.65;111693;1212;25082;-73
2021/09/04 07:05:59;;;;;;;43.90;25.20;;;;;;;15.30;82.79;98601.98;111751;1213;22578;-73
2021/09/04 07:08:25;;;;;;;42.20;26.80;;;;;;;15.39;82.47;98600.94;111811;1212;22563;-73
2021/09/04 07:10:52;;;;;;;36.30;23.70;;;;;;;15.45;82.01;98600.23;111882;1212;22467;-73
2021/09/04 07:13:19;;;;;;;36.30;25.00;;;;;;;15.55;82.19;98602.31;111750;1215;22941;-74
2021/09/04 07:16:00;;;;;;;43.00;25.90;;;;;;;15.71;82.00;98605.57;111649;1220;25160;-74
2021/09/04 07:18:27;;;;;;;41.60;26.10;;;;;;;15.80;81.49;98601.03;111810;1205;25206;-74
2021/09/04 07:21:07;;;;;;;40.70;26.00;;;;;;;15.90;81.15;98595.58;111705;1215;25169;-74
2021/09/04 07:23:35;;;;;;;38.60;26.20;;;;;;;15.98;81.10;98593.98;111784;1212;25047;-74
2021/09/04 07:26:02;;;;;;;34.60;23.60;;;;;;;16.05;80.99;98595.79;111872;1213;25163;-74
2021/09/04 07:28:29;;;;;;;37.00;24.70;;;;;;;16.13;80.58;98594.11;112097;1212;22953;-74
2021/09/04 07:30:58;;;;;;;42.00;25.80;;;;;;;16.15;80.26;98591.96;111733;1212;22463;-74
2021/09/04 07:33:39;;;;;;;39.30;24.80;;;;;;;16.18;80.19;98591.14;111762;1212;24032;-74
2021/09/04 07:36:08;;;;;;;37.40;25.70;;;;;;;16.28;80.24;98592.43;111821;1218;23331;-74
2021/09/04 07:38:36;;;;;;;33.70;24.20;;;;;;;16.38;80.13;98595.27;111780;1213;22502;-74
2021/09/04 07:41:17;;;;;;;35.90;24.60;;;;;;;16.53;80.11;98595.98;111640;1220;22470;-74
2021/09/04 07:43:44;;;;;;;37.90;24.00;;;;;;;16.67;79.63;98599.44;111741;1214;25172;-74
2021/09/04 07:46:11;;;;;;;39.20;24.10;;;;;;;16.78;79.16;98595.66;111726;1213;25047;-74
2021/09/04 07:48:38;;;;;;;36.80;23.10;;;;;;;16.84;79.11;98595.48;111724;1220;22509;-74
2021/09/04 07:51:18;;;;;;;36.10;23.40;;;;;;;16.87;79.05;98599.92;111730;1220;22462;-74
2021/09/04 07:53:45;;;;;;;33.40;22.70;;;;;;;16.93;79.11;98600.34;111770;1212;25547;-74
2021/09/04 07:56:12;;;;;;;32.50;20.20;;;;;;;17.04;78.72;98602.98;111770;1215;22467;-74
2021/09/04 07:58:39;;;;;;;30.60;22.30;;;;;;;17.20;78.95;98603.33;111869;1220;24319;-74
2021/09/04 08:01:06;;;;;;;32.20;22.20;;;;;;;17.41;78.69;98612.66;111955;1210;24053;-74
2021/09/04 08:03:33;;;;;;;31.80;22.40;;;;;;;17.62;78.37;98616.79;111790;1213;25169;-74
2021/09/04 08:06:00;;;;;;;31.30;22.50;;;;;;;17.75;77.73;98613.88;111955;1212;25083;-74
2021/09/04 08:08:27;;;;;;;28.30;21.40;;;;;;;17.91;77.50;98617.23;111840;1206;25068;-74
2021/09/04 08:10:55;;;;;;;33.20;21.10;;;;;;;18.07;76.91;98618.80;111721;1205;22575;-74
2021/09/04 08:13:22;;;;;;;34.80;21.20;;;;;;;18.18;76.02;98618.36;111664;1214;25048;-74
2021/09/04 08:15:49;;;;;;;27.80;20.00;;;;;;;18.28;76.15;98621.90;111653;1220;24140;-74
2021/09/04 08:18:16;;;;;;;26.90;19.80;;;;;;;18.36;75.44;98619.95;111818;1220;25103;-74
2021/09/04 08:20:43;;;;;;;29.00;20.50;;;;;;;18.38;74.46;98622.34;111636;1215;25108;-74
2021/09/04 08:23:24;;;;;;;26.30;17.80;;;;;;;18.43;74.78;98621.58;111733;1212;24166;-74
2021/09/04 08:26:05;;;;;;;28.60;20.50;;;;;;;18.53;74.57;98619.03;111755;1213;22463;-74
2021/09/04 08:28:32;;;;;;;28.30;18.60;;;;;;;18.59;74.36;98620.18;111554;1215;25414;-74
2021/09/04 08:30:59;;;;;;;27.00;17.30;;;;;;;18.67;74.40;98625.83;111767;1212;25301;-74
2021/09/04 08:33:26;;;;;;;24.10;16.50;;;;;;;18.75;74.17;98626.16;111774;1212;23112;-74
2021/09/04 08:36:07;;;;;;;25.00;17.30;;;;;;;18.88;73.58;98625.88;111563;1218;25128;-75
2021/09/04 08:38:34;;;;;;;24.50;16.30;;;;;;;19.00;72.81;98627.10;111558;1213;24105;-74
2021/09/04 08:41:00;;;;;;;23.90;16.30;;;;;;;19.11;72.88;98631.59;111646;1213;25321;-74
2021/09/04 08:43:28;;;;;;;22.90;16.70;;;;;;;19.21;72.35;98631.02;111681;1212;23744;-74
2021/09/04 08:46:13;;;;;;;24.00;17.40;;;;;;;19.32;72.08;98629.68;111565;1220;24170;-74
2021/09/04 08:48:42;;;;;;;23.30;16.70;;;;;;;19.48;71.12;98623.20;111800;1212;22731;-75
2021/09/04 08:51:09;;;;;;;22.80;16.30;;;;;;;19.65;70.34;98624.71;111904;1213;24095;-75
2021/09/04 08:53:36;;;;;;;24.40;16.80;;;;;;;19.83;70.20;98623.75;111841;1212;22441;-75
2021/09/04 08:56:17;;;;;;;18.80;13.60;;;;;;;19.97;69.69;98628.41;111773;1212;22463;-75
2021/09/04 08:58:44;;;;;;;19.70;14.60;;;;;;;20.00;68.42;98630.36;111505;1212;22508;-75
2021/09/04 09:01:20;;;;;;;18.50;13.00;;;;;;;19.93;68.32;98634.23;111772;1212;25175;-75
2021/09/04 09:03:49;;;;;;;21.40;14.80;;;;;;;19.96;67.57;98634.09;111831;1212;25162;-74
2021/09/04 09:06:30;;;;;;;26.50;15.40;;;;;;;20.05;68.03;98637.18;111786;1212;23743;-75
2021/09/04 09:08:57;;;;;;;21.70;15.80;;;;;;;20.23;67.20;98636.42;111866;1212;22587;-75
2021/09/04 09:11:38;;;;;;;21.90;15.10;;;;;;;20.37;67.53;98636.60;111681;1215;25085;-75
2021/09/04 09:14:20;;;;;;;18.10;14.30;;;;;;;20.53;66.84;98632.32;111659;1215;22474;-75
2021/09/04 09:16:51;;;;;;;24.40;15.20;;;;;;;20.60;64.86;98631.96;111657;1215;25095;-74
2021/09/04 09:19:27;;;;;;;23.30;16.20;;;;;;;20.60;65.78;98634.52;111613;1213;23326;-75
2021/09/04 09:22:13;;;;;;;22.80;16.50;;;;;;;20.60;65.51;98639.37;111812;1212;24090;-75
2021/09/04 09:25:12;;;;;;;20.60;16.10;;;;;;;20.51;65.06;98642.71;111770;1212;24101;-75
2021/09/04 09:27:57;;;;;;;27.90;17.00;;;;;;;20.32;65.03;98644.21;112028;1212;25158;-75
2021/09/04 09:30:42;;;;;;;22.60;16.60;;;;;;;20.30;65.85;98644.59;111699;1213;24201;-75
2021/09/04 09:33:28;;;;;;;23.50;17.20;;;;;;;20.38;65.90;98642.90;111756;1213;24092;-75
2021/09/04 09:36:02;;;;;;;20.70;16.60;;;;;;;20.34;64.91;98643.52;111802;1212;24104;-75
2021/09/04 09:38:43;;;;;;;21.60;15.50;;;;;;;20.30;65.03;98643.94;111812;1212;25203;-75
2021/09/04 09:41:25;;;;;;;23.00;15.50;;;;;;;20.23;64.34;98639.58;111745;1213;22470;-75
2021/09/04 09:43:52;;;;;;;22.90;16.10;;;;;;;20.19;64.81;98640.69;111754;1213;25087;-75
2021/09/04 09:46:50;;;;;;;18.50;14.50;;;;;;;20.32;65.23;98644.77;111724;1218;22482;-75
2021/09/04 09:49:18;;;;;;;20.30;14.70;;;;;;;20.59;64.74;98637.87;111787;1212;24168;-75
2021/09/04 09:51:45;;;;;;;18.80;13.50;;;;;;;20.79;64.56;98633.73;111669;1215;24093;-75
2021/09/04 09:54:12;;;;;;;18.40;14.10;;;;;;;21.03;64.34;98636.77;111657;1220;22754;-75
2021/09/04 09:56:40;;;;;;;19.70;15.90;;;;;;;21.23;62.81;98635.44;111700;1220;22716;-75
2021/09/04 09:59:11;;;;;;;21.90;14.90;;;;;;;21.27;62.99;98639.23;111541;1214;23779;-75
2021/09/04 10:01:54;;;;;;;16.50;13.00;;;;;;;21.35;62.53;98632.25;111683;1215;24165;-74
2021/09/04 10:04:37;;;;;;;20.00;14.60;;;;;;;21.36;62.89;98633.98;111738;1213;25275;-74
2021/09/04 10:07:07;;;;;;;17.50;13.60;;;;;;;21.27;62.00;98630.75;111763;1216;23452;-74
2021/09/04 10:09:37;;;;;;;20.90;14.40;;;;;;;21.29;61.82;98630.17;111713;1212;24155;-74
2021/09/04 10:12:05;;;;;;;17.80;11.80;;;;;;;21.45;61.66;98629.33;111734;1220;22789;-74
2021/09/04 10:14:34;;;;;;;21.40;14.70;;;;;;;21.55;61.41;98633.73;111607;1207;22536;-74
2021/09/04 10:17:04;;;;;;;19.30;13.60;;;;;;;21.52;60.00;98633.54;111623;1214;22462;-74
2021/09/04 10:19:33;;;;;;;21.40;15.20;;;;;;;21.36;59.42;98635.16;111673;1212;25050;-75
2021/09/04 10:22:06;;;;;;;22.20;13.80;;;;;;;21.21;59.86;98634.20;111788;1219;23780;-75
2021/09/04 10:24:49;;;;;;;20.60;14.30;;;;;;;21.15;60.72;98630.24;111746;1212;22464;-75
2021/09/04 10:27:39;;;;;;;17.30;13.30;;;;;;;21.17;61.76;98627.27;111973;1213;24142;-75
2021/09/04 10:30:25;;;;;;;19.90;13.40;;;;;;;21.30;61.74;98629.24;111738;1208;22477;-75
2021/09/04 10:33:18;;;;;;;19.90;13.20;;;;;;;21.33;61.94;98625.18;111766;1212;22490;-75
2021/09/04 10:36:03;;;;;;;17.20;12.70;;;;;;;21.55;61.29;98629.46;111510;1219;24174;-75
2021/09/04 10:38:34;;;;;;;18.70;11.60;;;;;;;21.58;59.90;98633.23;111640;1219;22473;-75
2021/09/04 10:41:21;;;;;;;18.10;12.40;;;;;;;21.59;60.06;98636.75;111561;1219;22613;-75
2021/09/04 10:43:51;;;;;;;16.70;12.30;;;;;;;21.81;59.76;98632.17;111696;1215;25646;-75
2021/09/04 10:46:20;;;;;;;16.80;12.00;;;;;;;22.01;59.95;98625.81;111700;1218;24193;-75
2021/09/04 10:48:59;;;;;;;;;;;;;;;22.26;59.73;98628.65;111567;1215;22451;-74
2021/09/04 10:51:49;;;;;;;19.20;13.10;;;;;;;22.45;57.54;98627.94;111638;1219;25057;-74
2021/09/04 10:54:54;;;;;;;17.60;13.00;;;;;;;22.63;57.89;98629.06;111522;1214;22624;-74
2021/09/04 10:58:02;;;;;;;19.50;13.60;;;;;;;22.53;55.94;98631.49;111473;1214;23228;-74
2021/09/04 11:00:39;;;;;;;18.70;13.80;;;;;;;22.12;56.10;98633.74;111533;1221;22457;-74
2021/09/04 11:03:14;;;;;;;19.00;13.30;;;;;;;21.81;56.66;98634.13;111601;1215;24074;-74
2021/09/04 11:05:57;;;;;;;17.80;13.30;;;;;;;21.75;57.58;98628.61;111767;1219;25047;-74
2021/09/04 11:08:44;;;;;;;18.30;13.10;;;;;;;21.90;58.01;98626.80;111712;1214;22575;-76
2021/09/04 11:11:12;;;;;;;19.00;12.10;;;;;;;22.09;57.98;98628.15;111591;1214;25160;-74
2021/09/04 11:13:45;;;;;;;14.40;11.60;;;;;;;22.30;58.04;98630.05;111619;1212;24077;-74
2021/09/04 11:16:35;;;;;;;15.20;12.20;;;;;;;22.49;56.47;98631.87;111582;1216;22453;-74
2021/09/04 11:19:22;;;;;;;15.70;12.70;;;;;;;22.72;55.12;98622.36;111594;1220;25275;-74
2021/09/04 11:22:07;;;;;;;20.80;13.80;;;;;;;22.90;55.80;98621.17;111544;1216;25141;-74
2021/09/04 11:24:39;;;;;;;14.20;12.00;;;;;;;23.04;54.91;98615.12;111751;1220;22491;-74
2021/09/04 11:27:20;;;;;;;16.20;12.50;;;;;;;23.14;55.05;98610.45;111746;1219;25176;-74
2021/09/04 11:30:01;;;;;;;18.80;13.00;;;;;;;23.23;55.23;98610.16;111540;1220;22599;-74
2021/09/04 11:32:29;;;;;;;15.30;11.10;;;;;;;23.31;54.67;98607.02;111558;1218;22464;-74